sensor_id;sensor_type;location;lat;lon;timestamp;P1;durP1;ratioP1;P2;durP2;ratioP2
40511;SDS011;26213;52.446;20.706;2023-04-25T00:01:45;24.93;;;19.57;;
40511;SDS011;26213;52.446;20.706;2023-04-25T00:04:11;24.17;;;18.08;;
40511;SDS011;26213;52.446;20.706;2023-04-25T00:06:37;26.77;;;18.65;;
40511;SDS011;26213;52.446;20.706;2023-04-25T00:09:03;24.13;;;18.08;;
40511;SDS011;26213;52.446;20.706;2023-04-25T00:11:32;25.48;;;18.55;;
40511;SDS011;26213;52.446;20.706;2023-04-25T00:13:57;24.38;;;18.52;;
40511;SDS011;26213;52.446;20.706;2023-04-25T00:16:24;23.40;;;18.13;;
40511;SDS011;26213;52.446;20.706;2023-04-25T00:18:50;23.08;;;17.85;;
40511;SDS011;26213;52.446;20.706;2023-04-25T00:21:19;24.48;;;19.05;;
40511;SDS011;26213;52.446;20.706;2023-04-25T00:23:45;29.63;;;19.05;;
40511;SDS011;26213;52.446;20.706;2023-04-25T00:26:11;24.55;;;18.75;;
40511;SDS011;26213;52.446;20.706;2023-04-25T00:28:37;21.83;;;18.42;;
40511;SDS011;26213;52.446;20.706;2023-04-25T00:31:02;22.42;;;18.27;;
40511;SDS011;26213;52.446;20.706;2023-04-25T00:33:28;22.70;;;17.17;;
40511;SDS011;26213;52.446;20.706;2023-04-25T00:35:55;23.52;;;18.80;;
40511;SDS011;26213;52.446;20.706;2023-04-25T00:38:20;32.47;;;21.75;;
40511;SDS011;26213;52.446;20.706;2023-04-25T00:40:46;40.92;;;26.60;;
40511;SDS011;26213;52.446;20.706;2023-04-25T00:43:12;53.55;;;29.02;;
40511;SDS011;26213;52.446;20.706;2023-04-25T00:45:38;39.05;;;25.33;;
40511;SDS011;26213;52.446;20.706;2023-04-25T00:48:04;32.38;;;20.98;;
40511;SDS011;26213;52.446;20.706;2023-04-25T00:50:29;33.53;;;22.20;;
40511;SDS011;26213;52.446;20.706;2023-04-25T00:52:55;31.15;;;19.33;;
40511;SDS011;26213;52.446;20.706;2023-04-25T00:55:21;25.80;;;19.63;;
40511;SDS011;26213;52.446;20.706;2023-04-25T00:57:46;25.95;;;19.85;;
40511;SDS011;26213;52.446;20.706;2023-04-25T01:00:12;21.08;;;18.05;;
40511;SDS011;26213;52.446;20.706;2023-04-25T01:02:39;23.00;;;18.83;;
40511;SDS011;26213;52.446;20.706;2023-04-25T01:05:05;23.83;;;19.88;;
40511;SDS011;26213;52.446;20.706;2023-04-25T01:07:31;25.35;;;19.17;;
40511;SDS011;26213;52.446;20.706;2023-04-25T01:09:56;27.05;;;20.63;;
40511;SDS011;26213;52.446;20.706;2023-04-25T01:12:22;29.48;;;21.17;;
40511;SDS011;26213;52.446;20.706;2023-04-25T01:14:48;26.88;;;21.02;;
40511;SDS011;26213;52.446;20.706;2023-04-25T01:17:13;26.77;;;21.25;;
40511;SDS011;26213;52.446;20.706;2023-04-25T01:19:40;26.88;;;20.85;;
40511;SDS011;26213;52.446;20.706;2023-04-25T01:22:05;25.10;;;19.80;;
40511;SDS011;26213;52.446;20.706;2023-04-25T01:24:31;24.27;;;19.73;;
40511;SDS011;26213;52.446;20.706;2023-04-25T01:26:58;23.75;;;18.73;;
40511;SDS011;26213;52.446;20.706;2023-04-25T01:29:25;25.10;;;18.52;;
40511;SDS011;26213;52.446;20.706;2023-04-25T01:31:52;24.85;;;18.40;;
40511;SDS011;26213;52.446;20.706;2023-04-25T01:34:17;27.05;;;19.35;;
40511;SDS011;26213;52.446;20.706;2023-04-25T01:36:43;22.77;;;18.63;;
40511;SDS011;26213;52.446;20.706;2023-04-25T01:39:08;22.90;;;18.08;;
40511;SDS011;26213;52.446;20.706;2023-04-25T01:41:34;21.90;;;17.80;;
40511;SDS011;26213;52.446;20.706;2023-04-25T01:43:59;24.00;;;18.73;;
40511;SDS011;26213;52.446;20.706;2023-04-25T01:46:26;22.45;;;18.55;;
40511;SDS011;26213;52.446;20.706;2023-04-25T01:48:52;23.25;;;17.63;;
40511;SDS011;26213;52.446;20.706;2023-04-25T01:51:18;22.08;;;18.58;;
40511;SDS011;26213;52.446;20.706;2023-04-25T01:53:43;24.95;;;19.40;;
40511;SDS011;26213;52.446;20.706;2023-04-25T01:56:09;21.10;;;17.92;;
40511;SDS011;26213;52.446;20.706;2023-04-25T01:58:35;21.80;;;18.27;;
40511;SDS011;26213;52.446;20.706;2023-04-25T02:01:00;21.85;;;18.05;;
40511;SDS011;26213;52.446;20.706;2023-04-25T02:03:25;23.10;;;17.60;;
40511;SDS011;26213;52.446;20.706;2023-04-25T02:05:51;18.75;;;16.58;;
40511;SDS011;26213;52.446;20.706;2023-04-25T02:08:16;21.38;;;16.17;;
40511;SDS011;26213;52.446;20.706;2023-04-25T02:10:43;18.83;;;16.83;;
40511;SDS011;26213;52.446;20.706;2023-04-25T02:13:08;17.60;;;14.98;;
40511;SDS011;26213;52.446;20.706;2023-04-25T02:15:34;19.65;;;15.80;;
40511;SDS011;26213;52.446;20.706;2023-04-25T02:17:59;18.55;;;15.88;;
40511;SDS011;26213;52.446;20.706;2023-04-25T02:20:25;18.00;;;15.00;;
40511;SDS011;26213;52.446;20.706;2023-04-25T02:22:51;19.27;;;15.00;;
40511;SDS011;26213;52.446;20.706;2023-04-25T02:25:17;19.63;;;14.88;;
40511;SDS011;26213;52.446;20.706;2023-04-25T02:27:44;21.85;;;17.33;;
40511;SDS011;26213;52.446;20.706;2023-04-25T02:30:11;21.45;;;16.75;;
40511;SDS011;26213;52.446;20.706;2023-04-25T02:32:36;18.17;;;15.35;;
40511;SDS011;26213;52.446;20.706;2023-04-25T02:35:02;18.83;;;15.82;;
40511;SDS011;26213;52.446;20.706;2023-04-25T02:37:31;21.85;;;15.18;;
40511;SDS011;26213;52.446;20.706;2023-04-25T02:39:57;18.05;;;14.43;;
40511;SDS011;26213;52.446;20.706;2023-04-25T02:42:22;19.63;;;14.40;;
40511;SDS011;26213;52.446;20.706;2023-04-25T02:44:47;16.77;;;14.98;;
40511;SDS011;26213;52.446;20.706;2023-04-25T02:47:13;16.40;;;14.55;;
40511;SDS011;26213;52.446;20.706;2023-04-25T02:49:39;17.52;;;14.95;;
40511;SDS011;26213;52.446;20.706;2023-04-25T02:52:04;19.38;;;14.45;;
40511;SDS011;26213;52.446;20.706;2023-04-25T02:54:30;18.10;;;14.23;;
40511;SDS011;26213;52.446;20.706;2023-04-25T02:56:55;16.33;;;14.55;;
40511;SDS011;26213;52.446;20.706;2023-04-25T02:59:21;14.57;;;12.70;;
40511;SDS011;26213;52.446;20.706;2023-04-25T03:01:46;14.75;;;12.30;;
40511;SDS011;26213;52.446;20.706;2023-04-25T03:04:12;15.65;;;12.35;;
40511;SDS011;26213;52.446;20.706;2023-04-25T03:06:37;15.05;;;11.95;;
40511;SDS011;26213;52.446;20.706;2023-04-25T03:09:02;15.73;;;12.27;;
40511;SDS011;26213;52.446;20.706;2023-04-25T03:11:28;16.17;;;13.18;;
40511;SDS011;26213;52.446;20.706;2023-04-25T03:13:54;15.02;;;12.52;;
40511;SDS011;26213;52.446;20.706;2023-04-25T03:16:19;17.27;;;13.23;;
40511;SDS011;26213;52.446;20.706;2023-04-25T03:18:45;15.00;;;12.30;;
40511;SDS011;26213;52.446;20.706;2023-04-25T03:21:10;18.40;;;12.65;;
40511;SDS011;26213;52.446;20.706;2023-04-25T03:23:35;16.15;;;12.43;;
40511;SDS011;26213;52.446;20.706;2023-04-25T03:26:01;15.15;;;11.18;;
40511;SDS011;26213;52.446;20.706;2023-04-25T03:28:26;16.92;;;12.15;;
40511;SDS011;26213;52.446;20.706;2023-04-25T03:30:51;14.70;;;11.25;;
40511;SDS011;26213;52.446;20.706;2023-04-25T03:33:17;14.85;;;11.07;;
40511;SDS011;26213;52.446;20.706;2023-04-25T03:35:42;14.10;;;10.38;;
40511;SDS011;26213;52.446;20.706;2023-04-25T03:38:08;13.88;;;9.43;;
40511;SDS011;26213;52.446;20.706;2023-04-25T03:40:33;17.20;;;9.88;;
40511;SDS011;26213;52.446;20.706;2023-04-25T03:42:59;13.57;;;10.07;;
40511;SDS011;26213;52.446;20.706;2023-04-25T03:45:24;12.75;;;9.43;;
40511;SDS011;26213;52.446;20.706;2023-04-25T03:47:50;12.10;;;8.98;;
40511;SDS011;26213;52.446;20.706;2023-04-25T03:50:15;13.05;;;10.25;;
40511;SDS011;26213;52.446;20.706;2023-04-25T03:52:42;16.63;;;12.35;;
40511;SDS011;26213;52.446;20.706;2023-04-25T03:55:08;16.90;;;13.17;;
40511;SDS011;26213;52.446;20.706;2023-04-25T03:57:34;17.30;;;13.23;;
40511;SDS011;26213;52.446;20.706;2023-04-25T03:59:59;21.33;;;15.35;;
40511;SDS011;26213;52.446;20.706;2023-04-25T04:02:25;27.67;;;18.52;;
40511;SDS011;26213;52.446;20.706;2023-04-25T04:04:50;35.38;;;20.95;;
40511;SDS011;26213;52.446;20.706;2023-04-25T04:07:15;35.88;;;23.00;;
40511;SDS011;26213;52.446;20.706;2023-04-25T04:09:41;41.53;;;23.88;;
40511;SDS011;26213;52.446;20.706;2023-04-25T04:12:06;20.67;;;13.40;;
40511;SDS011;26213;52.446;20.706;2023-04-25T04:14:32;35.92;;;20.58;;
40511;SDS011;26213;52.446;20.706;2023-04-25T04:16:57;41.28;;;24.33;;
40511;SDS011;26213;52.446;20.706;2023-04-25T04:19:22;29.45;;;18.85;;
40511;SDS011;26213;52.446;20.706;2023-04-25T04:21:48;21.50;;;14.27;;
40511;SDS011;26213;52.446;20.706;2023-04-25T04:24:13;24.85;;;16.20;;
40511;SDS011;26213;52.446;20.706;2023-04-25T04:26:40;24.35;;;15.15;;
40511;SDS011;26213;52.446;20.706;2023-04-25T04:29:05;24.67;;;16.15;;
40511;SDS011;26213;52.446;20.706;2023-04-25T04:31:32;18.25;;;14.52;;
40511;SDS011;26213;52.446;20.706;2023-04-25T04:33:57;21.85;;;15.45;;
40511;SDS011;26213;52.446;20.706;2023-04-25T04:36:23;20.60;;;15.35;;
40511;SDS011;26213;52.446;20.706;2023-04-25T04:38:49;18.23;;;14.50;;
40511;SDS011;26213;52.446;20.706;2023-04-25T04:41:14;16.70;;;14.02;;
40511;SDS011;26213;52.446;20.706;2023-04-25T04:43:40;19.55;;;15.27;;
40511;SDS011;26213;52.446;20.706;2023-04-25T04:46:05;19.50;;;15.27;;
40511;SDS011;26213;52.446;20.706;2023-04-25T04:48:32;19.75;;;16.35;;
40511;SDS011;26213;52.446;20.706;2023-04-25T04:53:24;18.63;;;16.00;;
40511;SDS011;26213;52.446;20.706;2023-04-25T04:55:50;18.80;;;15.43;;
40511;SDS011;26213;52.446;20.706;2023-04-25T04:58:16;16.38;;;14.45;;
40511;SDS011;26213;52.446;20.706;2023-04-25T05:00:41;15.48;;;13.57;;
40511;SDS011;26213;52.446;20.706;2023-04-25T05:03:06;16.40;;;14.15;;
40511;SDS011;26213;52.446;20.706;2023-04-25T05:05:32;16.85;;;14.20;;
40511;SDS011;26213;52.446;20.706;2023-04-25T05:07:57;18.65;;;13.18;;
40511;SDS011;26213;52.446;20.706;2023-04-25T05:10:23;17.23;;;15.13;;
40511;SDS011;26213;52.446;20.706;2023-04-25T05:12:48;15.68;;;13.98;;
40511;SDS011;26213;52.446;20.706;2023-04-25T05:15:14;15.02;;;13.43;;
40511;SDS011;26213;52.446;20.706;2023-04-25T05:17:39;21.58;;;15.68;;
40511;SDS011;26213;52.446;20.706;2023-04-25T05:20:05;18.67;;;14.95;;
40511;SDS011;26213;52.446;20.706;2023-04-25T05:22:32;15.27;;;12.43;;
40511;SDS011;26213;52.446;20.706;2023-04-25T05:24:58;21.10;;;14.38;;
40511;SDS011;26213;52.446;20.706;2023-04-25T05:27:23;18.05;;;13.52;;
40511;SDS011;26213;52.446;20.706;2023-04-25T05:29:49;15.45;;;13.38;;
40511;SDS011;26213;52.446;20.706;2023-04-25T05:32:14;14.60;;;12.40;;
40511;SDS011;26213;52.446;20.706;2023-04-25T05:34:40;17.42;;;12.95;;
40511;SDS011;26213;52.446;20.706;2023-04-25T05:37:06;17.30;;;12.15;;
40511;SDS011;26213;52.446;20.706;2023-04-25T05:39:32;15.50;;;12.65;;
40511;SDS011;26213;52.446;20.706;2023-04-25T05:41:57;14.98;;;12.43;;
40511;SDS011;26213;52.446;20.706;2023-04-25T05:44:23;17.23;;;13.45;;
40511;SDS011;26213;52.446;20.706;2023-04-25T05:46:48;18.05;;;12.85;;
40511;SDS011;26213;52.446;20.706;2023-04-25T05:49:14;24.73;;;17.90;;
40511;SDS011;26213;52.446;20.706;2023-04-25T05:51:39;14.75;;;13.15;;
40511;SDS011;26213;52.446;20.706;2023-04-25T05:54:05;13.57;;;11.82;;
40511;SDS011;26213;52.446;20.706;2023-04-25T05:56:30;12.55;;;10.85;;
40511;SDS011;26213;52.446;20.706;2023-04-25T05:58:56;13.15;;;11.68;;
40511;SDS011;26213;52.446;20.706;2023-04-25T06:01:22;12.15;;;10.77;;
40511;SDS011;26213;52.446;20.706;2023-04-25T06:03:48;12.27;;;10.98;;
40511;SDS011;26213;52.446;20.706;2023-04-25T06:06:13;13.73;;;10.05;;
40511;SDS011;26213;52.446;20.706;2023-04-25T06:08:39;12.75;;;9.98;;
40511;SDS011;26213;52.446;20.706;2023-04-25T06:11:05;12.48;;;10.05;;
40511;SDS011;26213;52.446;20.706;2023-04-25T06:13:31;11.88;;;10.32;;
40511;SDS011;26213;52.446;20.706;2023-04-25T06:15:57;13.27;;;10.45;;
40511;SDS011;26213;52.446;20.706;2023-04-25T06:18:22;15.75;;;11.07;;
40511;SDS011;26213;52.446;20.706;2023-04-25T06:20:47;12.63;;;10.50;;
40511;SDS011;26213;52.446;20.706;2023-04-25T06:23:13;13.85;;;12.35;;
40511;SDS011;26213;52.446;20.706;2023-04-25T06:25:38;14.30;;;11.95;;
40511;SDS011;26213;52.446;20.706;2023-04-25T06:28:03;14.63;;;12.48;;
40511;SDS011;26213;52.446;20.706;2023-04-25T06:30:29;15.15;;;13.40;;
40511;SDS011;26213;52.446;20.706;2023-04-25T06:32:54;14.93;;;13.35;;
40511;SDS011;26213;52.446;20.706;2023-04-25T06:35:20;16.90;;;12.98;;
40511;SDS011;26213;52.446;20.706;2023-04-25T06:37:45;15.18;;;12.57;;
40511;SDS011;26213;52.446;20.706;2023-04-25T06:40:11;15.07;;;13.05;;
40511;SDS011;26213;52.446;20.706;2023-04-25T06:42:36;20.98;;;13.55;;
40511;SDS011;26213;52.446;20.706;2023-04-25T06:45:02;15.85;;;14.05;;
40511;SDS011;26213;52.446;20.706;2023-04-25T06:47:28;16.83;;;13.50;;
40511;SDS011;26213;52.446;20.706;2023-04-25T06:49:54;15.32;;;13.55;;
40511;SDS011;26213;52.446;20.706;2023-04-25T06:52:20;16.23;;;13.63;;
40511;SDS011;26213;52.446;20.706;2023-04-25T06:54:46;17.05;;;15.13;;
40511;SDS011;26213;52.446;20.706;2023-04-25T06:57:11;16.35;;;13.88;;
40511;SDS011;26213;52.446;20.706;2023-04-25T06:59:36;21.48;;;16.63;;
40511;SDS011;26213;52.446;20.706;2023-04-25T07:02:02;21.88;;;16.85;;
40511;SDS011;26213;52.446;20.706;2023-04-25T07:04:28;17.45;;;13.82;;
40511;SDS011;26213;52.446;20.706;2023-04-25T07:06:54;19.45;;;16.63;;
40511;SDS011;26213;52.446;20.706;2023-04-25T07:09:20;18.73;;;15.57;;
40511;SDS011;26213;52.446;20.706;2023-04-25T07:11:45;19.80;;;15.95;;
40511;SDS011;26213;52.446;20.706;2023-04-25T07:14:11;15.88;;;13.32;;
40511;SDS011;26213;52.446;20.706;2023-04-25T07:16:36;15.77;;;12.23;;
40511;SDS011;26213;52.446;20.706;2023-04-25T07:19:02;16.30;;;12.57;;
40511;SDS011;26213;52.446;20.706;2023-04-25T07:21:27;15.57;;;12.52;;
40511;SDS011;26213;52.446;20.706;2023-04-25T07:23:52;15.75;;;12.68;;
40511;SDS011;26213;52.446;20.706;2023-04-25T07:26:18;16.02;;;13.45;;
40511;SDS011;26213;52.446;20.706;2023-04-25T07:28:43;16.40;;;14.10;;
40511;SDS011;26213;52.446;20.706;2023-04-25T07:31:09;15.20;;;13.57;;
40511;SDS011;26213;52.446;20.706;2023-04-25T07:33:34;14.52;;;12.60;;
40511;SDS011;26213;52.446;20.706;2023-04-25T07:36:00;15.30;;;12.88;;
40511;SDS011;26213;52.446;20.706;2023-04-25T07:38:25;15.88;;;13.25;;
40511;SDS011;26213;52.446;20.706;2023-04-25T07:40:51;16.10;;;13.30;;
40511;SDS011;26213;52.446;20.706;2023-04-25T07:43:17;16.77;;;13.13;;
40511;SDS011;26213;52.446;20.706;2023-04-25T07:45:42;15.52;;;12.90;;
40511;SDS011;26213;52.446;20.706;2023-04-25T07:48:08;15.10;;;12.35;;
40511;SDS011;26213;52.446;20.706;2023-04-25T07:50:34;16.67;;;14.30;;
40511;SDS011;26213;52.446;20.706;2023-04-25T07:52:59;23.05;;;15.52;;
40511;SDS011;26213;52.446;20.706;2023-04-25T07:55:24;18.17;;;13.68;;
40511;SDS011;26213;52.446;20.706;2023-04-25T07:57:50;12.75;;;11.18;;
40511;SDS011;26213;52.446;20.706;2023-04-25T08:00:15;14.90;;;11.57;;
40511;SDS011;26213;52.446;20.706;2023-04-25T08:02:41;14.63;;;11.88;;
40511;SDS011;26213;52.446;20.706;2023-04-25T08:05:07;14.73;;;12.50;;
40511;SDS011;26213;52.446;20.706;2023-04-25T08:07:36;12.82;;;11.50;;
40511;SDS011;26213;52.446;20.706;2023-04-25T08:10:02;14.45;;;12.35;;
40511;SDS011;26213;52.446;20.706;2023-04-25T08:12:28;17.40;;;11.00;;
40511;SDS011;26213;52.446;20.706;2023-04-25T08:14:53;15.63;;;12.05;;
40511;SDS011;26213;52.446;20.706;2023-04-25T08:17:19;14.35;;;12.27;;
40511;SDS011;26213;52.446;20.706;2023-04-25T08:19:44;13.55;;;11.32;;
40511;SDS011;26213;52.446;20.706;2023-04-25T08:22:10;13.45;;;10.98;;
40511;SDS011;26213;52.446;20.706;2023-04-25T08:24:35;15.73;;;10.40;;
40511;SDS011;26213;52.446;20.706;2023-04-25T08:27:01;11.23;;;9.45;;
40511;SDS011;26213;52.446;20.706;2023-04-25T08:29:27;12.15;;;9.73;;
40511;SDS011;26213;52.446;20.706;2023-04-25T08:31:53;10.63;;;8.90;;
40511;SDS011;26213;52.446;20.706;2023-04-25T08:34:19;11.52;;;9.35;;
40511;SDS011;26213;52.446;20.706;2023-04-25T08:36:45;12.80;;;8.98;;
40511;SDS011;26213;52.446;20.706;2023-04-25T08:39:11;11.93;;;8.13;;
40511;SDS011;26213;52.446;20.706;2023-04-25T08:41:36;9.70;;;8.23;;
40511;SDS011;26213;52.446;20.706;2023-04-25T08:44:02;14.32;;;9.20;;
40511;SDS011;26213;52.446;20.706;2023-04-25T08:46:28;9.10;;;7.57;;
40511;SDS011;26213;52.446;20.706;2023-04-25T08:48:54;10.05;;;8.18;;
40511;SDS011;26213;52.446;20.706;2023-04-25T08:51:25;9.63;;;8.00;;
40511;SDS011;26213;52.446;20.706;2023-04-25T08:53:51;11.57;;;7.93;;
40511;SDS011;26213;52.446;20.706;2023-04-25T08:56:17;9.32;;;7.35;;
40511;SDS011;26213;52.446;20.706;2023-04-25T08:58:45;13.10;;;9.93;;
40511;SDS011;26213;52.446;20.706;2023-04-25T09:01:13;10.88;;;8.70;;
40511;SDS011;26213;52.446;20.706;2023-04-25T09:03:38;13.48;;;9.57;;
40511;SDS011;26213;52.446;20.706;2023-04-25T09:06:04;14.80;;;9.02;;
40511;SDS011;26213;52.446;20.706;2023-04-25T09:08:29;16.58;;;10.95;;
40511;SDS011;26213;52.446;20.706;2023-04-25T09:10:55;14.35;;;7.60;;
40511;SDS011;26213;52.446;20.706;2023-04-25T09:13:25;12.63;;;8.13;;
40511;SDS011;26213;52.446;20.706;2023-04-25T09:15:53;11.05;;;8.10;;
40511;SDS011;26213;52.446;20.706;2023-04-25T09:18:25;15.50;;;8.82;;
40511;SDS011;26213;52.446;20.706;2023-04-25T09:20:54;14.48;;;10.55;;
40511;SDS011;26213;52.446;20.706;2023-04-25T09:23:21;12.45;;;9.20;;
40511;SDS011;26213;52.446;20.706;2023-04-25T09:25:50;10.00;;;7.85;;
40511;SDS011;26213;52.446;20.706;2023-04-25T09:28:22;14.60;;;11.25;;
40511;SDS011;26213;52.446;20.706;2023-04-25T09:30:53;12.48;;;10.77;;
40511;SDS011;26213;52.446;20.706;2023-04-25T09:33:20;12.23;;;8.32;;
40511;SDS011;26213;52.446;20.706;2023-04-25T09:35:46;9.48;;;7.95;;
40511;SDS011;26213;52.446;20.706;2023-04-25T09:38:18;10.50;;;8.57;;
40511;SDS011;26213;52.446;20.706;2023-04-25T09:40:44;8.25;;;7.45;;
40511;SDS011;26213;52.446;20.706;2023-04-25T09:43:20;12.13;;;9.77;;
40511;SDS011;26213;52.446;20.706;2023-04-25T09:45:47;9.40;;;7.55;;
40511;SDS011;26213;52.446;20.706;2023-04-25T09:48:19;10.30;;;8.27;;
40511;SDS011;26213;52.446;20.706;2023-04-25T09:53:37;13.88;;;9.05;;
40511;SDS011;26213;52.446;20.706;2023-04-25T09:56:04;13.57;;;7.68;;
40511;SDS011;26213;52.446;20.706;2023-04-25T09:58:32;10.80;;;7.03;;
40511;SDS011;26213;52.446;20.706;2023-04-25T10:00:59;6.55;;;4.97;;
40511;SDS011;26213;52.446;20.706;2023-04-25T10:03:26;8.07;;;5.75;;
40511;SDS011;26213;52.446;20.706;2023-04-25T10:05:52;8.88;;;5.95;;
40511;SDS011;26213;52.446;20.706;2023-04-25T10:08:18;6.53;;;4.78;;
40511;SDS011;26213;52.446;20.706;2023-04-25T10:10:43;9.38;;;5.13;;
40511;SDS011;26213;52.446;20.706;2023-04-25T10:13:09;5.47;;;4.25;;
40511;SDS011;26213;52.446;20.706;2023-04-25T10:15:36;7.13;;;5.03;;
40511;SDS011;26213;52.446;20.706;2023-04-25T10:18:02;7.32;;;4.88;;
40511;SDS011;26213;52.446;20.706;2023-04-25T10:20:29;6.50;;;4.57;;
40511;SDS011;26213;52.446;20.706;2023-04-25T10:22:55;4.75;;;4.20;;
40511;SDS011;26213;52.446;20.706;2023-04-25T10:25:24;13.07;;;6.45;;
40511;SDS011;26213;52.446;20.706;2023-04-25T10:27:50;7.43;;;5.00;;
40511;SDS011;26213;52.446;20.706;2023-04-25T10:30:16;8.70;;;4.38;;
40511;SDS011;26213;52.446;20.706;2023-04-25T10:32:43;6.63;;;4.63;;
40511;SDS011;26213;52.446;20.706;2023-04-25T10:35:23;10.02;;;4.75;;
40511;SDS011;26213;52.446;20.706;2023-04-25T10:38:02;7.05;;;4.25;;
40511;SDS011;26213;52.446;20.706;2023-04-25T10:40:32;4.78;;;3.35;;
40511;SDS011;26213;52.446;20.706;2023-04-25T10:46:02;5.18;;;4.03;;
40511;SDS011;26213;52.446;20.706;2023-04-25T10:48:30;5.32;;;3.78;;
40511;SDS011;26213;52.446;20.706;2023-04-25T10:51:09;7.70;;;4.63;;
40511;SDS011;26213;52.446;20.706;2023-04-25T10:53:35;7.50;;;4.63;;
40511;SDS011;26213;52.446;20.706;2023-04-25T10:56:03;7.38;;;5.15;;
40511;SDS011;26213;52.446;20.706;2023-04-25T11:01:42;5.22;;;3.80;;
40511;SDS011;26213;52.446;20.706;2023-04-25T11:04:20;6.40;;;4.25;;
40511;SDS011;26213;52.446;20.706;2023-04-25T11:09:27;12.02;;;6.57;;
40511;SDS011;26213;52.446;20.706;2023-04-25T11:11:56;12.15;;;8.57;;
40511;SDS011;26213;52.446;20.706;2023-04-25T11:14:23;5.82;;;4.07;;
40511;SDS011;26213;52.446;20.706;2023-04-25T11:16:56;8.70;;;4.95;;
40511;SDS011;26213;52.446;20.706;2023-04-25T11:19:22;14.13;;;7.05;;
40511;SDS011;26213;52.446;20.706;2023-04-25T11:21:48;15.30;;;7.72;;
40511;SDS011;26213;52.446;20.706;2023-04-25T11:24:14;7.38;;;5.05;;
40511;SDS011;26213;52.446;20.706;2023-04-25T11:26:41;7.17;;;4.20;;
40511;SDS011;26213;52.446;20.706;2023-04-25T11:29:07;6.80;;;4.50;;
40511;SDS011;26213;52.446;20.706;2023-04-25T11:31:33;10.82;;;6.22;;
40511;SDS011;26213;52.446;20.706;2023-04-25T11:33:59;10.95;;;7.43;;
40511;SDS011;26213;52.446;20.706;2023-04-25T11:36:25;10.13;;;6.47;;
40511;SDS011;26213;52.446;20.706;2023-04-25T11:38:52;9.50;;;6.53;;
40511;SDS011;26213;52.446;20.706;2023-04-25T11:41:18;7.50;;;4.65;;
40511;SDS011;26213;52.446;20.706;2023-04-25T11:43:47;5.43;;;4.00;;
40511;SDS011;26213;52.446;20.706;2023-04-25T11:46:13;22.48;;;12.25;;
40511;SDS011;26213;52.446;20.706;2023-04-25T11:48:42;7.03;;;4.65;;
40511;SDS011;26213;52.446;20.706;2023-04-25T11:51:08;4.20;;;3.30;;
40511;SDS011;26213;52.446;20.706;2023-04-25T11:53:34;5.47;;;3.47;;
40511;SDS011;26213;52.446;20.706;2023-04-25T11:56:00;6.45;;;4.43;;
40511;SDS011;26213;52.446;20.706;2023-04-25T11:58:26;4.03;;;3.00;;
40511;SDS011;26213;52.446;20.706;2023-04-25T12:00:52;7.82;;;5.07;;
40511;SDS011;26213;52.446;20.706;2023-04-25T12:03:18;5.18;;;3.35;;
40511;SDS011;26213;52.446;20.706;2023-04-25T12:05:44;5.75;;;4.32;;
40511;SDS011;26213;52.446;20.706;2023-04-25T12:08:10;4.53;;;3.42;;
40511;SDS011;26213;52.446;20.706;2023-04-25T12:10:40;7.82;;;4.57;;
40511;SDS011;26213;52.446;20.706;2023-04-25T12:13:22;6.28;;;3.92;;
40511;SDS011;26213;52.446;20.706;2023-04-25T12:15:48;7.05;;;3.97;;
40511;SDS011;26213;52.446;20.706;2023-04-25T12:18:14;4.70;;;3.30;;
40511;SDS011;26213;52.446;20.706;2023-04-25T12:20:41;7.38;;;4.40;;
40511;SDS011;26213;52.446;20.706;2023-04-25T12:23:06;8.05;;;5.47;;
40511;SDS011;26213;52.446;20.706;2023-04-25T12:25:42;6.47;;;4.30;;
40511;SDS011;26213;52.446;20.706;2023-04-25T12:30:52;5.07;;;3.83;;
40511;SDS011;26213;52.446;20.706;2023-04-25T12:33:24;7.95;;;4.55;;
40511;SDS011;26213;52.446;20.706;2023-04-25T12:35:51;9.27;;;5.55;;
40511;SDS011;26213;52.446;20.706;2023-04-25T12:38:37;9.23;;;4.93;;
40511;SDS011;26213;52.446;20.706;2023-04-25T12:41:05;4.90;;;3.35;;
40511;SDS011;26213;52.446;20.706;2023-04-25T12:43:31;6.60;;;4.13;;
40511;SDS011;26213;52.446;20.706;2023-04-25T12:45:56;7.93;;;4.57;;
40511;SDS011;26213;52.446;20.706;2023-04-25T12:48:22;5.80;;;3.90;;
40511;SDS011;26213;52.446;20.706;2023-04-25T12:50:48;6.25;;;3.72;;
40511;SDS011;26213;52.446;20.706;2023-04-25T12:53:16;5.90;;;4.30;;
40511;SDS011;26213;52.446;20.706;2023-04-25T12:55:41;8.93;;;6.00;;
40511;SDS011;26213;52.446;20.706;2023-04-25T12:58:07;8.02;;;5.07;;
40511;SDS011;26213;52.446;20.706;2023-04-25T13:00:32;6.80;;;4.65;;
40511;SDS011;26213;52.446;20.706;2023-04-25T13:02:58;7.60;;;4.40;;
40511;SDS011;26213;52.446;20.706;2023-04-25T13:05:24;6.13;;;4.25;;
40511;SDS011;26213;52.446;20.706;2023-04-25T13:07:50;6.97;;;4.38;;
40511;SDS011;26213;52.446;20.706;2023-04-25T13:10:16;6.45;;;4.28;;
40511;SDS011;26213;52.446;20.706;2023-04-25T13:12:42;6.22;;;4.05;;
40511;SDS011;26213;52.446;20.706;2023-04-25T13:15:08;6.63;;;4.28;;
40511;SDS011;26213;52.446;20.706;2023-04-25T13:17:36;6.53;;;4.53;;
40511;SDS011;26213;52.446;20.706;2023-04-25T13:20:03;6.80;;;4.10;;
40511;SDS011;26213;52.446;20.706;2023-04-25T13:22:31;5.97;;;3.65;;
40511;SDS011;26213;52.446;20.706;2023-04-25T13:24:56;5.22;;;3.65;;
40511;SDS011;26213;52.446;20.706;2023-04-25T13:27:22;6.43;;;4.10;;
40511;SDS011;26213;52.446;20.706;2023-04-25T13:29:47;4.53;;;3.60;;
40511;SDS011;26213;52.446;20.706;2023-04-25T13:32:13;8.82;;;4.40;;
40511;SDS011;26213;52.446;20.706;2023-04-25T13:34:38;7.90;;;5.15;;
40511;SDS011;26213;52.446;20.706;2023-04-25T13:37:04;8.93;;;7.28;;
40511;SDS011;26213;52.446;20.706;2023-04-25T13:39:30;8.10;;;6.57;;
40511;SDS011;26213;52.446;20.706;2023-04-25T13:41:55;6.88;;;4.45;;
40511;SDS011;26213;52.446;20.706;2023-04-25T13:44:21;6.07;;;4.20;;
40511;SDS011;26213;52.446;20.706;2023-04-25T13:46:46;6.93;;;4.38;;
40511;SDS011;26213;52.446;20.706;2023-04-25T13:49:12;22.83;;;14.10;;
40511;SDS011;26213;52.446;20.706;2023-04-25T13:51:37;9.55;;;7.05;;
40511;SDS011;26213;52.446;20.706;2023-04-25T13:54:03;9.70;;;6.50;;
40511;SDS011;26213;52.446;20.706;2023-04-25T13:56:28;11.50;;;7.03;;
40511;SDS011;26213;52.446;20.706;2023-04-25T13:58:54;8.18;;;5.63;;
40511;SDS011;26213;52.446;20.706;2023-04-25T14:01:20;7.10;;;4.97;;
40511;SDS011;26213;52.446;20.706;2023-04-25T14:03:46;7.15;;;5.10;;
40511;SDS011;26213;52.446;20.706;2023-04-25T14:06:11;6.90;;;4.68;;
40511;SDS011;26213;52.446;20.706;2023-04-25T14:08:38;7.68;;;4.65;;
40511;SDS011;26213;52.446;20.706;2023-04-25T14:11:03;11.68;;;9.52;;
40511;SDS011;26213;52.446;20.706;2023-04-25T14:13:29;13.48;;;7.13;;
40511;SDS011;26213;52.446;20.706;2023-04-25T14:15:54;5.88;;;3.53;;
40511;SDS011;26213;52.446;20.706;2023-04-25T14:18:20;6.50;;;3.95;;
40511;SDS011;26213;52.446;20.706;2023-04-25T14:20:45;8.73;;;5.70;;
40511;SDS011;26213;52.446;20.706;2023-04-25T14:23:10;8.10;;;5.00;;
40511;SDS011;26213;52.446;20.706;2023-04-25T14:25:36;4.50;;;3.67;;
40511;SDS011;26213;52.446;20.706;2023-04-25T14:28:02;9.48;;;5.47;;
40511;SDS011;26213;52.446;20.706;2023-04-25T14:30:27;7.70;;;4.60;;